Terminal Aerodrome Forecast
Issued by NWS

Home | Current Version | Previous Version | Text Only | Print | Product List | Glossary On
Versions: 1 2 3 4 5 6 7 8 9 10 11 12
000
FTUS45 KRIW 172300
TAFCPR
TAF
KCPR 172322Z 1800/1824 22010KT P6SM SKC
     FM181000 22015KT P6SM SKC
     FM182200 22011KT P6SM SKC=

USA.gov is the U.S. government's official web portal to all federal, state and local government web resources and services.